sensor_id;sensor_type;location;lat;lon;timestamp;pressure;altitude;pressure_sealevel;temperature;humidity
79347;BME280;68815;48.810;44.482;2024-02-26T00:02:20;103073;;;-10.4;82.4
79347;BME280;68815;48.810;44.482;2024-02-26T00:05:22;103069.99;;;-10.4;82.6
79347;BME280;68815;48.810;44.482;2024-02-26T00:08:24;103069.99;;;-10.5;82.9
79347;BME280;68815;48.810;44.482;2024-02-26T00:11:26;103071;;;-10.5;83.1
79347;BME280;68815;48.810;44.482;2024-02-26T00:14:28;103065;;;-10.5;83.3
79347;BME280;68815;48.810;44.482;2024-02-26T00:17:29;103071;;;-10.5;83.2
79347;BME280;68815;48.810;44.482;2024-02-26T00:20:31;103068.01;;;-10.6;83.4
79347;BME280;68815;48.810;44.482;2024-02-26T00:23:33;103069.99;;;-10.5;83.2
79347;BME280;68815;48.810;44.482;2024-02-26T00:26:35;103061;;;-10.6;83.1
79347;BME280;68815;48.810;44.482;2024-02-26T00:29:36;103060;;;-10.6;82.8
79347;BME280;68815;48.810;44.482;2024-02-26T00:32:38;103055.01;;;-10.5;82.7
79347;BME280;68815;48.810;44.482;2024-02-26T00:35:41;103052;;;-10.7;82.2
79347;BME280;68815;48.810;44.482;2024-02-26T00:38:43;103050;;;-10.7;82
79347;BME280;68815;48.810;44.482;2024-02-26T00:41:44;103053;;;-10.9;82.1
79347;BME280;68815;48.810;44.482;2024-02-26T00:44:46;103054;;;-11.1;82.2
79347;BME280;68815;48.810;44.482;2024-02-26T00:47:48;103056.01;;;-11.1;82.4
79347;BME280;68815;48.810;44.482;2024-02-26T00:50:50;103051;;;-11.1;82.3
79347;BME280;68815;48.810;44.482;2024-02-26T00:53:51;103059;;;-11;82
79347;BME280;68815;48.810;44.482;2024-02-26T00:56:53;103056.01;;;-10.9;81.7
79347;BME280;68815;48.810;44.482;2024-02-26T00:59:55;103060;;;-11.1;81.8
79347;BME280;68815;48.810;44.482;2024-02-26T01:02:57;103048;;;-11.1;81.9
79347;BME280;68815;48.810;44.482;2024-02-26T01:05:58;103046;;;-11.2;82
79347;BME280;68815;48.810;44.482;2024-02-26T01:09:00;103048;;;-11.2;81.8
79347;BME280;68815;48.810;44.482;2024-02-26T01:12:03;103048;;;-11.2;82
79347;BME280;68815;48.810;44.482;2024-02-26T01:15:05;103040;;;-11.2;81.8
79347;BME280;68815;48.810;44.482;2024-02-26T01:18:08;103031.99;;;-11.2;81.6
79347;BME280;68815;48.810;44.482;2024-02-26T01:21:10;103038;;;-11.4;81.7
79347;BME280;68815;48.810;44.482;2024-02-26T01:24:13;103039;;;-11.3;81.7
79347;BME280;68815;48.810;44.482;2024-02-26T01:27:15;103028;;;-11.3;81.6
79347;BME280;68815;48.810;44.482;2024-02-26T01:30:17;103029;;;-11.4;81.4
79347;BME280;68815;48.810;44.482;2024-02-26T01:33:19;103028;;;-11.5;81.7
79347;BME280;68815;48.810;44.482;2024-02-26T01:52:04;103011;;;-11.7;83
79347;BME280;68815;48.810;44.482;2024-02-26T01:55:08;103007.99;;;-11.8;84.2
79347;BME280;68815;48.810;44.482;2024-02-26T01:58:10;103006.01;;;-11.8;83.9
79347;BME280;68815;48.810;44.482;2024-02-26T02:01:12;103009;;;-11.6;83.4
79347;BME280;68815;48.810;44.482;2024-02-26T02:04:16;103003;;;-11.6;83
79347;BME280;68815;48.810;44.482;2024-02-26T02:07:18;103003;;;-11.8;82.9
79347;BME280;68815;48.810;44.482;2024-02-26T02:10:20;102999;;;-11.6;82.9
79347;BME280;68815;48.810;44.482;2024-02-26T02:13:22;103005.01;;;-11.8;82.7
79347;BME280;68815;48.810;44.482;2024-02-26T02:16:24;103006.01;;;-11.7;82.3
79347;BME280;68815;48.810;44.482;2024-02-26T02:19:26;102998;;;-11.8;82.5
79347;BME280;68815;48.810;44.482;2024-02-26T02:22:28;102996;;;-11.8;82.2
79347;BME280;68815;48.810;44.482;2024-02-26T02:25:29;102993.01;;;-12.1;83.4
79347;BME280;68815;48.810;44.482;2024-02-26T02:28:32;102996;;;-12.1;83.6
79347;BME280;68815;48.810;44.482;2024-02-26T02:31:34;102992.01;;;-12.2;83.4
79347;BME280;68815;48.810;44.482;2024-02-26T02:34:36;102990;;;-12;83
79347;BME280;68815;48.810;44.482;2024-02-26T02:37:38;102990;;;-11.8;82.2
79347;BME280;68815;48.810;44.482;2024-02-26T02:40:40;102992.01;;;-11.8;81.4
79347;BME280;68815;48.810;44.482;2024-02-26T02:43:42;102992.01;;;-12;82.3
79347;BME280;68815;48.810;44.482;2024-02-26T02:46:43;102993.99;;;-12.1;82.3
79347;BME280;68815;48.810;44.482;2024-02-26T02:49:45;102992.01;;;-11.9;82.3
79347;BME280;68815;48.810;44.482;2024-02-26T02:52:47;102993.99;;;-11.8;81.5
79347;BME280;68815;48.810;44.482;2024-02-26T02:55:49;102988;;;-11.8;81
79347;BME280;68815;48.810;44.482;2024-02-26T02:58:51;102988;;;-11.7;80.7
79347;BME280;68815;48.810;44.482;2024-02-26T03:01:53;102985;;;-11.8;80.4
79347;BME280;68815;48.810;44.482;2024-02-26T03:04:54;102986;;;-11.8;80.3
79347;BME280;68815;48.810;44.482;2024-02-26T03:07:56;102988;;;-11.8;80.1
79347;BME280;68815;48.810;44.482;2024-02-26T03:10:58;102988;;;-11.8;80
79347;BME280;68815;48.810;44.482;2024-02-26T03:14:01;102993.01;;;-11.8;79.9
79347;BME280;68815;48.810;44.482;2024-02-26T03:17:02;102988;;;-11.8;79.7
79347;BME280;68815;48.810;44.482;2024-02-26T03:20:05;102989;;;-11.8;79.6
79347;BME280;68815;48.810;44.482;2024-02-26T03:23:07;102988;;;-11.6;79
79347;BME280;68815;48.810;44.482;2024-02-26T03:26:09;102988;;;-11.7;78.7
79347;BME280;68815;48.810;44.482;2024-02-26T03:29:10;102986;;;-11.6;78.7
79347;BME280;68815;48.810;44.482;2024-02-26T03:32:12;102993.01;;;-11.8;78.7
79347;BME280;68815;48.810;44.482;2024-02-26T03:35:14;102993.99;;;-11.8;78.6
79347;BME280;68815;48.810;44.482;2024-02-26T03:38:17;102993.01;;;-11.9;78.1
79347;BME280;68815;48.810;44.482;2024-02-26T03:41:18;102993.99;;;-11.8;77.8
79347;BME280;68815;48.810;44.482;2024-02-26T03:44:20;102989;;;-11.9;77.7
79347;BME280;68815;48.810;44.482;2024-02-26T03:47:22;102992.01;;;-11.8;77.6
79347;BME280;68815;48.810;44.482;2024-02-26T03:50:24;102993.01;;;-11.9;77.7
79347;BME280;68815;48.810;44.482;2024-02-26T03:53:26;103000;;;-11.9;77.6
79347;BME280;68815;48.810;44.482;2024-02-26T03:56:30;102996;;;-11.8;77.5
79347;BME280;68815;48.810;44.482;2024-02-26T03:59:32;102999;;;-11.7;77.1
79347;BME280;68815;48.810;44.482;2024-02-26T04:02:34;103002;;;-11.7;76.9
79347;BME280;68815;48.810;44.482;2024-02-26T04:05:35;103001;;;-11.7;76.7
79347;BME280;68815;48.810;44.482;2024-02-26T04:08:37;103001;;;-11.6;76.7
79347;BME280;68815;48.810;44.482;2024-02-26T04:11:39;103005.01;;;-11.6;76.6
79347;BME280;68815;48.810;44.482;2024-02-26T04:14:41;102997;;;-11.4;76.8
79347;BME280;68815;48.810;44.482;2024-02-26T04:17:43;103003;;;-11.3;76
79347;BME280;68815;48.810;44.482;2024-02-26T04:20:45;103005.01;;;-11.3;76.3
79347;BME280;68815;48.810;44.482;2024-02-26T04:23:46;103002;;;-11.2;76
79347;BME280;68815;48.810;44.482;2024-02-26T04:26:48;103005.01;;;-11;75.7
79347;BME280;68815;48.810;44.482;2024-02-26T04:29:50;103002;;;-10.8;75.4
79347;BME280;68815;48.810;44.482;2024-02-26T04:32:52;103005.01;;;-10.6;74.7
79347;BME280;68815;48.810;44.482;2024-02-26T04:35:54;103006.99;;;-10.5;73.9
79347;BME280;68815;48.810;44.482;2024-02-26T04:38:55;103011;;;-10.4;73.9
79347;BME280;68815;48.810;44.482;2024-02-26T04:41:57;103021;;;-10.3;74.3
79347;BME280;68815;48.810;44.482;2024-02-26T04:44:59;103018.99;;;-10.3;74.4
79347;BME280;68815;48.810;44.482;2024-02-26T04:48:01;103026;;;-10.1;75
79347;BME280;68815;48.810;44.482;2024-02-26T04:51:03;103025;;;-10.3;75.7
79347;BME280;68815;48.810;44.482;2024-02-26T04:54:05;103031.01;;;-10.2;76.3
79347;BME280;68815;48.810;44.482;2024-02-26T04:57:07;103030.01;;;-10.1;77
79347;BME280;68815;48.810;44.482;2024-02-26T05:00:10;103030.01;;;-10;76.3
79347;BME280;68815;48.810;44.482;2024-02-26T05:03:12;103031.01;;;-10;76.8
79347;BME280;68815;48.810;44.482;2024-02-26T05:06:14;103023;;;-9.4;76.2
79347;BME280;68815;48.810;44.482;2024-02-26T05:09:15;103032.99;;;-9.4;75.1
79347;BME280;68815;48.810;44.482;2024-02-26T05:12:17;103019.99;;;-9.2;75.1
79347;BME280;68815;48.810;44.482;2024-02-26T05:15:19;103028;;;-9.7;75.8
79347;BME280;68815;48.810;44.482;2024-02-26T05:18:22;103025;;;-9.5;76.5
79347;BME280;68815;48.810;44.482;2024-02-26T05:21:23;103011;;;-8.7;75.4
79347;BME280;68815;48.810;44.482;2024-02-26T05:24:25;103017.01;;;-8.9;74.4
79347;BME280;68815;48.810;44.482;2024-02-26T05:27:27;103019.99;;;-8.3;73.5
79347;BME280;68815;48.810;44.482;2024-02-26T05:30:29;103016;;;-8.4;72.2
79347;BME280;68815;48.810;44.482;2024-02-26T05:33:31;103021;;;-8.3;72.4
79347;BME280;68815;48.810;44.482;2024-02-26T05:36:32;103024;;;-8.3;72.3
79347;BME280;68815;48.810;44.482;2024-02-26T05:39:34;103029;;;-8.5;72.2
79347;BME280;68815;48.810;44.482;2024-02-26T05:42:36;103030.01;;;-8.2;72.6
79347;BME280;68815;48.810;44.482;2024-02-26T05:45:37;103040;;;-7.8;70.8
79347;BME280;68815;48.810;44.482;2024-02-26T05:48:39;103040;;;-7.5;70.7
79347;BME280;68815;48.810;44.482;2024-02-26T05:51:41;103032.99;;;-7.2;69.4
79347;BME280;68815;48.810;44.482;2024-02-26T05:54:43;103028;;;-7.2;68.5
79347;BME280;68815;48.810;44.482;2024-02-26T05:57:44;103036;;;-7.1;68.6
79347;BME280;68815;48.810;44.482;2024-02-26T06:00:47;103041;;;-7.3;68.8
79347;BME280;68815;48.810;44.482;2024-02-26T06:03:50;103037;;;-6.7;67.3
79347;BME280;68815;48.810;44.482;2024-02-26T06:06:51;103036;;;-5.8;65.6
79347;BME280;68815;48.810;44.482;2024-02-26T06:09:54;103037;;;-5.2;64.4
79347;BME280;68815;48.810;44.482;2024-02-26T06:12:55;103032.99;;;-5.9;64.3
79347;BME280;68815;48.810;44.482;2024-02-26T06:15:57;103031.01;;;-5.8;63.8
79347;BME280;68815;48.810;44.482;2024-02-26T06:19:00;103036;;;-5.9;64.2
79347;BME280;68815;48.810;44.482;2024-02-26T06:22:02;103031.01;;;-5.9;63.8
79347;BME280;68815;48.810;44.482;2024-02-26T06:25:04;103036;;;-5.6;65.2
79347;BME280;68815;48.810;44.482;2024-02-26T06:28:06;103030.01;;;-5.3;62.9
79347;BME280;68815;48.810;44.482;2024-02-26T06:31:08;103038;;;-5.2;63.2
79347;BME280;68815;48.810;44.482;2024-02-26T06:34:10;103019.99;;;-4.8;60.9
79347;BME280;68815;48.810;44.482;2024-02-26T06:37:12;103022;;;-4.4;59.6
79347;BME280;68815;48.810;44.482;2024-02-26T06:40:14;103023;;;-4.4;58.2
79347;BME280;68815;48.810;44.482;2024-02-26T06:43:15;103042.01;;;-5.3;59.2
79347;BME280;68815;48.810;44.482;2024-02-26T06:46:17;103038;;;-4.9;60.2
79347;BME280;68815;48.810;44.482;2024-02-26T06:49:20;103036;;;-4.3;58.1
79347;BME280;68815;48.810;44.482;2024-02-26T06:52:21;103031.99;;;-2.7;55.1
79347;BME280;68815;48.810;44.482;2024-02-26T06:55:24;103038;;;-3.3;54.9
79347;BME280;68815;48.810;44.482;2024-02-26T06:58:25;103035;;;-2.8;54.2
79347;BME280;68815;48.810;44.482;2024-02-26T07:01:28;103036;;;-2.6;51.7
79347;BME280;68815;48.810;44.482;2024-02-26T07:04:30;103036;;;-2.9;52.2
79347;BME280;68815;48.810;44.482;2024-02-26T07:07:32;103031.01;;;-2.7;52.4
79347;BME280;68815;48.810;44.482;2024-02-26T07:10:34;103031.99;;;-1.1;49.1
79347;BME280;68815;48.810;44.482;2024-02-26T07:13:37;103029;;;-1.2;48
79347;BME280;68815;48.810;44.482;2024-02-26T07:16:38;103023;;;-0.7;46.5
79347;BME280;68815;48.810;44.482;2024-02-26T07:19:41;103023;;;-1.5;48.5
79347;BME280;68815;48.810;44.482;2024-02-26T07:22:43;103015;;;-3.2;51.7
79347;BME280;68815;48.810;44.482;2024-02-26T07:25:44;103017.01;;;-2.9;51.9
79347;BME280;68815;48.810;44.482;2024-02-26T07:28:46;103016;;;-3.5;52.6
79347;BME280;68815;48.810;44.482;2024-02-26T07:31:48;103022;;;-3.2;53.4
79347;BME280;68815;48.810;44.482;2024-02-26T07:34:50;103022;;;-3.5;52.8
79347;BME280;68815;48.810;44.482;2024-02-26T07:37:51;103019.99;;;-3.5;53.4
79347;BME280;68815;48.810;44.482;2024-02-26T07:40:53;103007.99;;;-3.1;55.1
79347;BME280;68815;48.810;44.482;2024-02-26T07:43:55;103006.99;;;-3.8;54.5
79347;BME280;68815;48.810;44.482;2024-02-26T07:46:56;103014;;;-4;55.3
79347;BME280;68815;48.810;44.482;2024-02-26T07:49:58;102998;;;-3.2;54.4
79347;BME280;68815;48.810;44.482;2024-02-26T07:53:00;103011;;;-3.4;53.9
79347;BME280;68815;48.810;44.482;2024-02-26T07:56:02;102997;;;-3.2;54.1
79347;BME280;68815;48.810;44.482;2024-02-26T07:59:04;102998;;;-3.4;55
79347;BME280;68815;48.810;44.482;2024-02-26T08:02:06;102988;;;-3.1;53.8
79347;BME280;68815;48.810;44.482;2024-02-26T08:05:08;102994.99;;;-3.4;53.4
79347;BME280;68815;48.810;44.482;2024-02-26T08:08:10;102998;;;-3.7;53.9
79347;BME280;68815;48.810;44.482;2024-02-26T08:11:13;102990;;;-3.7;56.2
79347;BME280;68815;48.810;44.482;2024-02-26T08:14:15;102985;;;-3.5;54.3
79347;BME280;68815;48.810;44.482;2024-02-26T08:17:18;102980.01;;;-4.3;57.1
79347;BME280;68815;48.810;44.482;2024-02-26T08:20:19;102981.01;;;-4;56.1
79347;BME280;68815;48.810;44.482;2024-02-26T08:23:21;102984;;;-3.5;56.5
79347;BME280;68815;48.810;44.482;2024-02-26T08:26:23;102986;;;-3.8;56.3
79347;BME280;68815;48.810;44.482;2024-02-26T08:29:25;102981.01;;;-3.5;54.9
79347;BME280;68815;48.810;44.482;2024-02-26T08:32:26;102977;;;-3;55.6
79347;BME280;68815;48.810;44.482;2024-02-26T08:35:28;102978;;;-3.4;56.5
79347;BME280;68815;48.810;44.482;2024-02-26T08:38:31;102968.99;;;-2.7;55.1
79347;BME280;68815;48.810;44.482;2024-02-26T08:41:33;102968.99;;;-3.1;54.8
79347;BME280;68815;48.810;44.482;2024-02-26T08:44:34;102968.01;;;-2.7;55.6
79347;BME280;68815;48.810;44.482;2024-02-26T08:47:36;102967.01;;;-2.4;54.5
79347;BME280;68815;48.810;44.482;2024-02-26T08:50:38;102963;;;-2.5;55.1
79347;BME280;68815;48.810;44.482;2024-02-26T08:53:40;102957.99;;;-2.3;54
79347;BME280;68815;48.810;44.482;2024-02-26T08:56:42;102953;;;-2.4;54
79347;BME280;68815;48.810;44.482;2024-02-26T08:59:43;102949;;;-2.3;54.1
79347;BME280;68815;48.810;44.482;2024-02-26T09:02:45;102952;;;-2;54.3
79347;BME280;68815;48.810;44.482;2024-02-26T09:05:48;102941;;;-2.2;53.8
79347;BME280;68815;48.810;44.482;2024-02-26T09:08:49;102937;;;-2.8;52.1
79347;BME280;68815;48.810;44.482;2024-02-26T09:11:51;102931.01;;;-3;54
79347;BME280;68815;48.810;44.482;2024-02-26T09:14:53;102932.99;;;-3.3;54.5
79347;BME280;68815;48.810;44.482;2024-02-26T09:17:55;102930.01;;;-3;55.3
79347;BME280;68815;48.810;44.482;2024-02-26T09:20:57;102931.99;;;-3.2;54.2
79347;BME280;68815;48.810;44.482;2024-02-26T09:23:59;102925;;;-3.2;54.9
79347;BME280;68815;48.810;44.482;2024-02-26T09:27:00;102927;;;-2.9;55.5
79347;BME280;68815;48.810;44.482;2024-02-26T09:30:02;102931.01;;;-2.9;54.5
79347;BME280;68815;48.810;44.482;2024-02-26T09:33:06;102918.01;;;-2.8;56.7
79347;BME280;68815;48.810;44.482;2024-02-26T09:36:08;102928;;;-2.8;55.9
79347;BME280;68815;48.810;44.482;2024-02-26T09:39:10;102906.01;;;-2.9;56.3
79347;BME280;68815;48.810;44.482;2024-02-26T09:42:12;102909;;;-3;56.4
79347;BME280;68815;48.810;44.482;2024-02-26T09:45:18;102916;;;-3;56.9
79347;BME280;68815;48.810;44.482;2024-02-26T09:48:22;102901;;;-3;56.8
79347;BME280;68815;48.810;44.482;2024-02-26T09:51:25;102901;;;-2.9;55.1
79347;BME280;68815;48.810;44.482;2024-02-26T09:54:27;102893.99;;;-2.8;55.1
79347;BME280;68815;48.810;44.482;2024-02-26T09:57:30;102890;;;-3;55.8
79347;BME280;68815;48.810;44.482;2024-02-26T10:00:37;102881.01;;;-3.1;55.8
79347;BME280;68815;48.810;44.482;2024-02-26T10:03:41;102885;;;-2.9;56.5
79347;BME280;68815;48.810;44.482;2024-02-26T10:06:44;102878;;;-2.7;49.6
79347;BME280;68815;48.810;44.482;2024-02-26T10:09:46;102879;;;-3;48.1
79347;BME280;68815;48.810;44.482;2024-02-26T10:12:48;102875;;;-2.6;48.9
79347;BME280;68815;48.810;44.482;2024-02-26T10:15:50;102871;;;-2.7;47.7
79347;BME280;68815;48.810;44.482;2024-02-26T10:18:53;102862;;;-2.5;48
79347;BME280;68815;48.810;44.482;2024-02-26T10:21:57;102863;;;-2.5;46.4
79347;BME280;68815;48.810;44.482;2024-02-26T10:24:59;102863;;;-2.7;47.4
79347;BME280;68815;48.810;44.482;2024-02-26T10:28:01;102863;;;-2.4;48.9
79347;BME280;68815;48.810;44.482;2024-02-26T10:31:03;102855.01;;;-2.4;48.4
79347;BME280;68815;48.810;44.482;2024-02-26T10:34:05;102854;;;-2.7;48.1
79347;BME280;68815;48.810;44.482;2024-02-26T10:37:07;102854;;;-2.4;49.1
79347;BME280;68815;48.810;44.482;2024-02-26T10:40:10;102844.99;;;-2.3;48.5
79347;BME280;68815;48.810;44.482;2024-02-26T10:43:12;102849;;;-2.5;46.9
79347;BME280;68815;48.810;44.482;2024-02-26T10:46:14;102850;;;-2.2;48.9
79347;BME280;68815;48.810;44.482;2024-02-26T10:49:16;102835;;;-2.4;48.3
79347;BME280;68815;48.810;44.482;2024-02-26T10:52:19;102830.01;;;-2.3;48.6
79347;BME280;68815;48.810;44.482;2024-02-26T10:55:22;102836;;;-2.3;47.8
79347;BME280;68815;48.810;44.482;2024-02-26T10:58:24;102821;;;-2.3;48.1
79347;BME280;68815;48.810;44.482;2024-02-26T11:01:27;102813;;;-2.3;47.5
79347;BME280;68815;48.810;44.482;2024-02-26T11:04:31;102824;;;-2.3;47.5
79347;BME280;68815;48.810;44.482;2024-02-26T11:07:34;102805.01;;;-2.3;47.3
79347;BME280;68815;48.810;44.482;2024-02-26T11:10:36;102822;;;-2.1;47.5
79347;BME280;68815;48.810;44.482;2024-02-26T11:13:38;102806.99;;;-2.1;46.8
79347;BME280;68815;48.810;44.482;2024-02-26T11:16:40;102798;;;-2.2;45.6
79347;BME280;68815;48.810;44.482;2024-02-26T11:19:42;102789;;;-2.1;45
79347;BME280;68815;48.810;44.482;2024-02-26T11:22:45;102793.01;;;-2;45.8
79347;BME280;68815;48.810;44.482;2024-02-26T11:25:47;102793.01;;;-2;44.3
79347;BME280;68815;48.810;44.482;2024-02-26T11:28:51;102790;;;-2;45.1
79347;BME280;68815;48.810;44.482;2024-02-26T11:31:53;102778;;;-2;44.5
79347;BME280;68815;48.810;44.482;2024-02-26T11:34:55;102790;;;-1.9;45.1
79347;BME280;68815;48.810;44.482;2024-02-26T11:37:58;102776;;;-2;45.3
79347;BME280;68815;48.810;44.482;2024-02-26T11:41:00;102776;;;-2;45.9
79347;BME280;68815;48.810;44.482;2024-02-26T11:44:02;102786;;;-1.9;46.2
79347;BME280;68815;48.810;44.482;2024-02-26T11:47:11;102769.99;;;-1.9;49
79347;BME280;68815;48.810;44.482;2024-02-26T11:50:39;102774;;;-1.8;50.6
79347;BME280;68815;48.810;44.482;2024-02-26T11:53:46;102769.99;;;-1.8;51.6
79347;BME280;68815;48.810;44.482;2024-02-26T11:56:50;102767.01;;;-1.9;51.9
79347;BME280;68815;48.810;44.482;2024-02-26T11:59:52;102768.99;;;-2;52.1
79347;BME280;68815;48.810;44.482;2024-02-26T12:02:55;102768.99;;;-2.1;53.1
79347;BME280;68815;48.810;44.482;2024-02-26T12:05:57;102760;;;-2.1;52.9
79347;BME280;68815;48.810;44.482;2024-02-26T12:08:59;102768.99;;;-2.2;54.5
79347;BME280;68815;48.810;44.482;2024-02-26T12:12:02;102766;;;-2;54.2
79347;BME280;68815;48.810;44.482;2024-02-26T12:15:04;102763;;;-2.2;53.7
79347;BME280;68815;48.810;44.482;2024-02-26T12:18:07;102756.01;;;-2.1;56.7
79347;BME280;68815;48.810;44.482;2024-02-26T12:21:10;102763;;;-2.3;54.3
79347;BME280;68815;48.810;44.482;2024-02-26T12:24:13;102760;;;-2.2;53.9
79347;BME280;68815;48.810;44.482;2024-02-26T12:27:15;102748;;;-2.2;54.7
79347;BME280;68815;48.810;44.482;2024-02-26T12:30:17;102754;;;-2.1;55.4
79347;BME280;68815;48.810;44.482;2024-02-26T12:33:19;102744.99;;;-2.3;54.1
79347;BME280;68815;48.810;44.482;2024-02-26T12:36:21;102754;;;-2.3;54.2
79347;BME280;68815;48.810;44.482;2024-02-26T12:39:23;102738;;;-2.1;56.3
79347;BME280;68815;48.810;44.482;2024-02-26T12:42:25;102739;;;-2.2;55
79347;BME280;68815;48.810;44.482;2024-02-26T12:45:27;102740;;;-2.3;54.7
79347;BME280;68815;48.810;44.482;2024-02-26T12:48:29;102737;;;-2.4;56
79347;BME280;68815;48.810;44.482;2024-02-26T12:51:31;102742.01;;;-2.4;56.6
79347;BME280;68815;48.810;44.482;2024-02-26T12:54:34;102735;;;-2.5;56.6
79347;BME280;68815;48.810;44.482;2024-02-26T12:57:38;102748;;;-2.6;56.3
79347;BME280;68815;48.810;44.482;2024-02-26T13:00:40;102747;;;-2.7;56.2
79347;BME280;68815;48.810;44.482;2024-02-26T13:03:43;102751;;;-2.9;56.8
79347;BME280;68815;48.810;44.482;2024-02-26T13:06:45;102752;;;-3;56.2
79347;BME280;68815;48.810;44.482;2024-02-26T13:09:47;102757.99;;;-3;55.8
79347;BME280;68815;48.810;44.482;2024-02-26T13:12:49;102744.99;;;-3.1;56.1
79347;BME280;68815;48.810;44.482;2024-02-26T13:16:00;102748;;;-3.1;56.2
79347;BME280;68815;48.810;44.482;2024-02-26T13:19:08;102741;;;-3.1;57
79347;BME280;68815;48.810;44.482;2024-02-26T13:22:11;102748;;;-3.1;56.6
79347;BME280;68815;48.810;44.482;2024-02-26T13:25:12;102746;;;-3.2;57.2
79347;BME280;68815;48.810;44.482;2024-02-26T13:28:16;102743.01;;;-3.3;57.5
79347;BME280;68815;48.810;44.482;2024-02-26T13:31:18;102752;;;-3.3;59.1
79347;BME280;68815;48.810;44.482;2024-02-26T13:34:24;102751;;;-3.4;61
79347;BME280;68815;48.810;44.482;2024-02-26T13:37:26;102748;;;-3.4;62
79347;BME280;68815;48.810;44.482;2024-02-26T13:40:28;102752;;;-3.5;62.5
79347;BME280;68815;48.810;44.482;2024-02-26T13:43:30;102767.01;;;-3.6;63.2
79347;BME280;68815;48.810;44.482;2024-02-26T13:46:32;102761;;;-3.7;63.9
79347;BME280;68815;48.810;44.482;2024-02-26T13:49:33;102765;;;-3.8;63.9
79347;BME280;68815;48.810;44.482;2024-02-26T13:52:35;102757.99;;;-3.8;64.2
79347;BME280;68815;48.810;44.482;2024-02-26T13:55:37;102768.99;;;-4;64.5
79347;BME280;68815;48.810;44.482;2024-02-26T13:58:39;102767.01;;;-4.1;64.9
79347;BME280;68815;48.810;44.482;2024-02-26T14:01:41;102772;;;-4.1;65.2
79347;BME280;68815;48.810;44.482;2024-02-26T14:04:42;102768.01;;;-4.3;65.5
79347;BME280;68815;48.810;44.482;2024-02-26T14:07:44;102762;;;-4.3;66
79347;BME280;68815;48.810;44.482;2024-02-26T14:10:46;102767.01;;;-4.3;66.2
79347;BME280;68815;48.810;44.482;2024-02-26T14:13:48;102765;;;-4.3;66.2
79347;BME280;68815;48.810;44.482;2024-02-26T14:16:50;102772;;;-4.4;66.3
79347;BME280;68815;48.810;44.482;2024-02-26T14:19:51;102774;;;-4.5;66.8
79347;BME280;68815;48.810;44.482;2024-02-26T14:22:53;102775;;;-4.6;67.3
79347;BME280;68815;48.810;44.482;2024-02-26T14:25:55;102789;;;-4.7;67.5
79347;BME280;68815;48.810;44.482;2024-02-26T14:28:57;102779;;;-4.7;67.2
79347;BME280;68815;48.810;44.482;2024-02-26T14:31:58;102781.01;;;-4.8;67.8
79347;BME280;68815;48.810;44.482;2024-02-26T14:35:00;102777;;;-4.9;68
79347;BME280;68815;48.810;44.482;2024-02-26T14:38:03;102787;;;-4.8;67.8
79347;BME280;68815;48.810;44.482;2024-02-26T14:41:05;102784;;;-5;68.2
79347;BME280;68815;48.810;44.482;2024-02-26T14:44:06;102784;;;-4.9;67.8
79347;BME280;68815;48.810;44.482;2024-02-26T14:47:08;102782.99;;;-5;67.6
79347;BME280;68815;48.810;44.482;2024-02-26T14:50:10;102785;;;-5;67.8
79347;BME280;68815;48.810;44.482;2024-02-26T14:53:12;102778;;;-5.2;68.3
79347;BME280;68815;48.810;44.482;2024-02-26T14:56:14;102786;;;-5.2;68.7
79347;BME280;68815;48.810;44.482;2024-02-26T14:59:16;102788;;;-5.2;69.1
79347;BME280;68815;48.810;44.482;2024-02-26T15:02:18;102790;;;-5.2;69.1
79347;BME280;68815;48.810;44.482;2024-02-26T15:05:19;102785;;;-5.4;69.7
79347;BME280;68815;48.810;44.482;2024-02-26T15:08:21;102788;;;-5.3;70.1
79347;BME280;68815;48.810;44.482;2024-02-26T15:11:23;102790;;;-5.4;70.2
79347;BME280;68815;48.810;44.482;2024-02-26T15:14:25;102785;;;-5.4;70.5
79347;BME280;68815;48.810;44.482;2024-02-26T15:17:27;102791;;;-5.5;70.5
79347;BME280;68815;48.810;44.482;2024-02-26T15:20:29;102789;;;-5.5;70.7
79347;BME280;68815;48.810;44.482;2024-02-26T15:23:30;102790;;;-5.4;70.5
79347;BME280;68815;48.810;44.482;2024-02-26T15:26:32;102791;;;-5.6;71
79347;BME280;68815;48.810;44.482;2024-02-26T15:29:34;102796;;;-5.6;70.8
79347;BME280;68815;48.810;44.482;2024-02-26T15:32:36;102800;;;-5.6;70.7
79347;BME280;68815;48.810;44.482;2024-02-26T15:35:38;102791;;;-5.8;71.6
79347;BME280;68815;48.810;44.482;2024-02-26T15:38:41;102793.01;;;-5.7;71.7
79347;BME280;68815;48.810;44.482;2024-02-26T15:41:43;102794.99;;;-6;72.4
79347;BME280;68815;48.810;44.482;2024-02-26T15:44:45;102796;;;-6.1;72.8
79347;BME280;68815;48.810;44.482;2024-02-26T15:47:47;102797;;;-6;72.9
79347;BME280;68815;48.810;44.482;2024-02-26T15:50:48;102792.01;;;-6.1;73.3
79347;BME280;68815;48.810;44.482;2024-02-26T15:53:50;102788;;;-6;73.3
79347;BME280;68815;48.810;44.482;2024-02-26T15:56:52;102790;;;-5.9;73.1
79347;BME280;68815;48.810;44.482;2024-02-26T15:59:53;102792.01;;;-6.1;73.3
79347;BME280;68815;48.810;44.482;2024-02-26T16:02:55;102792.01;;;-6.2;73.7
79347;BME280;68815;48.810;44.482;2024-02-26T16:05:57;102785;;;-6.2;73.5
79347;BME280;68815;48.810;44.482;2024-02-26T16:09:00;102797;;;-6.2;74
79347;BME280;68815;48.810;44.482;2024-02-26T16:12:08;102793.99;;;-6.3;74.6
79347;BME280;68815;48.810;44.482;2024-02-26T16:15:11;102793.01;;;-6.2;74.4
79347;BME280;68815;48.810;44.482;2024-02-26T16:18:13;102803;;;-6.4;74.7
79347;BME280;68815;48.810;44.482;2024-02-26T16:21:15;102793.01;;;-6.5;75.2
79347;BME280;68815;48.810;44.482;2024-02-26T16:24:17;102788;;;-6.4;75.2
79347;BME280;68815;48.810;44.482;2024-02-26T16:27:19;102787;;;-6.5;75.2
79347;BME280;68815;48.810;44.482;2024-02-26T16:30:21;102790;;;-6.4;75.1
79347;BME280;68815;48.810;44.482;2024-02-26T16:33:23;102796;;;-6.5;75.2
79347;BME280;68815;48.810;44.482;2024-02-26T16:36:25;102788;;;-6.5;75.3
79347;BME280;68815;48.810;44.482;2024-02-26T16:39:26;102801;;;-6.5;74.6
79347;BME280;68815;48.810;44.482;2024-02-26T16:42:28;102794.99;;;-6.4;74.3
79347;BME280;68815;48.810;44.482;2024-02-26T16:45:31;102788;;;-6.5;74.5
79347;BME280;68815;48.810;44.482;2024-02-26T16:48:35;102779;;;-6.4;74.3